createdAt,value
2022-09-28T00:00:46.648Z,0.53
2022-09-28T00:03:13.793Z,1.07
2022-09-28T00:05:40.622Z,1.73
2022-09-28T00:08:07.555Z,0.73
2022-09-28T00:10:34.245Z,0.70
2022-09-28T00:13:01.838Z,0.73
2022-09-28T00:15:29.222Z,4.47
2022-09-28T00:17:56.324Z,3.03
2022-09-28T00:20:22.991Z,0.40
2022-09-28T00:22:49.738Z,0.20
2022-09-28T00:25:17.065Z,0.47
2022-09-28T00:27:49.342Z,0.20
2022-09-28T00:30:16.715Z,0.20
2022-09-28T00:32:43.857Z,0.40
2022-09-28T00:35:11.377Z,0.33
2022-09-28T00:37:38.226Z,0.37
2022-09-28T00:40:05.545Z,0.60
2022-09-28T00:42:32.246Z,0.43
2022-09-28T00:44:59.729Z,2.57
2022-09-28T00:47:40.507Z,0.30
2022-09-28T00:50:14.790Z,1.13
2022-09-28T00:53:01.891Z,0.20
2022-09-28T00:55:40.629Z,0.20
2022-09-28T00:58:11.795Z,0.60
2022-09-28T01:00:41.126Z,0.83
2022-09-28T01:03:09.641Z,0.57
2022-09-28T01:05:39.403Z,0.33
2022-09-28T01:08:08.125Z,7.87
2022-09-28T01:10:35.039Z,35.30
2022-09-28T01:13:02.016Z,53.23
2022-09-28T01:15:30.486Z,24.27
2022-09-28T01:18:01.706Z,13.70
2022-09-28T01:20:54.047Z,8.07
2022-09-28T01:23:44.584Z,10.00
2022-09-28T01:26:45.173Z,5.70
2022-09-28T01:29:35.326Z,5.17
2022-09-28T01:32:25.338Z,1.40
2022-09-28T01:35:01.546Z,2.23
2022-09-28T01:37:45.339Z,0.50
2022-09-28T01:40:15.035Z,0.40
2022-09-28T01:42:45.134Z,1.17
2022-09-28T01:45:28.676Z,2.53
2022-09-28T01:48:02.971Z,1.60
2022-09-28T01:50:35.433Z,2.67
2022-09-28T01:53:09.641Z,2.37
2022-09-28T01:55:50.387Z,0.13
2022-09-28T01:58:38.796Z,0.50
2022-09-28T02:01:17.440Z,0.47
2022-09-28T02:03:55.759Z,0.30
2022-09-28T02:06:31.957Z,2.37
2022-09-28T02:09:05.546Z,0.70
2022-09-28T02:11:47.326Z,0.20
2022-09-28T02:14:18.127Z,0.40
2022-09-28T02:16:50.422Z,0.30
2022-09-28T02:19:24.707Z,0.30
2022-09-28T02:21:59.012Z,0.33
2022-09-28T02:24:34.786Z,0.30
2022-09-28T02:27:11.446Z,0.93
2022-09-28T02:29:38.225Z,0.97
2022-09-28T02:32:05.297Z,0.30
2022-09-28T02:34:32.986Z,3.70
2022-09-28T02:37:00.111Z,1.07
2022-09-28T02:39:26.941Z,1.47
2022-09-28T02:42:25.787Z,0.97
2022-09-28T02:45:15.610Z,1.67
2022-09-28T02:48:09.326Z,0.43
2022-09-28T02:51:06.263Z,0.80
2022-09-28T02:53:45.110Z,0.60
2022-09-28T02:56:37.626Z,1.40
2022-09-28T02:59:07.574Z,0.50
2022-09-28T03:01:46.582Z,0.20
2022-09-28T03:04:37.683Z,0.80
2022-09-28T03:07:31.270Z,0.20
2022-09-28T03:10:10.729Z,0.50
2022-09-28T03:12:39.246Z,1.70
2022-09-28T03:15:22.993Z,0.40
2022-09-28T03:17:49.830Z,1.37
2022-09-28T03:20:17.692Z,0.30
2022-09-28T03:23:00.277Z,0.70
2022-09-28T03:25:32.222Z,0.70
2022-09-28T03:27:59.359Z,0.33
2022-09-28T03:30:27.089Z,0.37
2022-09-28T03:32:58.806Z,0.40
2022-09-28T03:35:27.118Z,2.03
2022-09-28T03:37:57.282Z,1.97
2022-09-28T03:40:26.159Z,1.47
2022-09-28T03:42:53.993Z,0.77
2022-09-28T03:45:21.005Z,0.63
2022-09-28T03:47:49.949Z,2.67
2022-09-28T03:50:18.487Z,7.20
2022-09-28T03:52:45.230Z,0.87
2022-09-28T03:55:12.177Z,3.47
2022-09-28T03:57:38.913Z,0.60
2022-09-28T04:00:06.368Z,0.93
2022-09-28T04:02:40.705Z,1.20
2022-09-28T04:05:09.391Z,0.97
2022-09-28T04:07:37.629Z,5.20
2022-09-28T04:10:05.016Z,0.53
2022-09-28T04:12:32.194Z,0.53
2022-09-28T04:14:58.885Z,1.03
2022-09-28T04:17:25.823Z,0.53
2022-09-28T04:19:52.841Z,2.20
2022-09-28T04:22:37.739Z,0.40
2022-09-28T04:25:05.141Z,0.40
2022-09-28T04:27:50.490Z,1.27
2022-09-28T04:30:18.111Z,0.30
2022-09-28T04:32:49.167Z,0.53
2022-09-28T04:35:16.747Z,0.67
2022-09-28T04:37:43.773Z,0.90
2022-09-28T04:40:11.299Z,3.10
2022-09-28T04:42:38.234Z,0.83
2022-09-28T04:45:05.790Z,2.93
2022-09-28T04:47:35.919Z,0.90
2022-09-28T04:50:28.956Z,2.10
2022-09-28T04:53:14.397Z,1.17
2022-09-28T04:55:41.338Z,1.40
2022-09-28T04:58:08.075Z,2.10
2022-09-28T05:00:35.211Z,0.50
2022-09-28T05:03:28.290Z,1.03
2022-09-28T05:06:15.677Z,0.50
2022-09-28T05:08:47.275Z,0.50
2022-09-28T05:11:15.485Z,1.43
2022-09-28T05:13:45.494Z,0.50
2022-09-28T05:16:20.429Z,0.53
2022-09-28T05:19:16.220Z,0.60
2022-09-28T05:21:46.915Z,3.17
2022-09-28T05:24:13.811Z,1.07
2022-09-28T05:26:44.530Z,4.20
2022-09-28T05:29:11.563Z,0.80
2022-09-28T05:31:57.198Z,0.70
2022-09-28T05:34:35.254Z,0.50
2022-09-28T05:37:02.050Z,1.90
2022-09-28T05:39:30.686Z,1.20
2022-09-28T05:41:58.039Z,1.33
2022-09-28T05:44:25.968Z,1.90
2022-09-28T05:46:54.736Z,2.43
2022-09-28T05:49:23.052Z,2.73
2022-09-28T05:51:49.743Z,1.97
2022-09-28T05:54:16.720Z,2.97
2022-09-28T05:56:46.259Z,3.70
2022-09-28T05:59:13.598Z,4.70
2022-09-28T06:01:41.286Z,2.60
2022-09-28T06:04:10.226Z,0.60
2022-09-28T06:06:38.459Z,0.80
2022-09-28T06:09:05.436Z,1.13
2022-09-28T06:12:05.597Z,0.80
2022-09-28T06:14:39.715Z,1.67
2022-09-28T06:17:06.529Z,0.80
2022-09-28T06:19:33.402Z,2.63
2022-09-28T06:22:18.667Z,4.10
2022-09-28T06:24:55.058Z,0.80
2022-09-28T06:27:24.028Z,3.13
2022-09-28T06:29:50.982Z,0.80
2022-09-28T06:32:17.795Z,1.27
2022-09-28T06:34:47.674Z,0.90
2022-09-28T06:37:14.435Z,2.60
2022-09-28T06:39:41.626Z,1.17
2022-09-28T06:42:08.345Z,0.70
2022-09-28T06:44:53.579Z,0.70
2022-09-28T06:47:37.783Z,1.97
2022-09-28T06:50:16.495Z,1.17
2022-09-28T06:52:54.222Z,1.23
2022-09-28T06:55:43.025Z,2.23
2022-09-28T06:58:12.162Z,0.93
2022-09-28T07:00:40.045Z,1.37
2022-09-28T07:03:11.593Z,2.10
2022-09-28T07:06:04.954Z,1.53
2022-09-28T07:08:37.616Z,1.63
2022-09-28T07:11:26.839Z,2.47
2022-09-28T07:14:22.237Z,2.20
2022-09-28T07:17:12.313Z,1.47
2022-09-28T07:19:39.894Z,0.73
2022-09-28T07:22:06.634Z,1.37
2022-09-28T07:24:33.649Z,1.13
2022-09-28T07:27:39.674Z,0.83
2022-09-28T07:30:15.743Z,0.80
2022-09-28T07:33:14.659Z,1.73
2022-09-28T07:35:55.637Z,1.47
2022-09-28T07:38:27.111Z,0.77
2022-09-28T07:41:11.912Z,1.33
2022-09-28T07:43:44.055Z,1.80
2022-09-28T07:46:14.864Z,2.90
2022-09-28T07:48:51.706Z,1.63
2022-09-28T07:51:38.753Z,2.20
2022-09-28T07:54:17.945Z,1.30
2022-09-28T07:57:03.253Z,2.57
2022-09-28T07:59:50.666Z,6.13
2022-09-28T08:02:43.356Z,0.73
2022-09-28T08:05:12.532Z,1.17
2022-09-28T08:07:39.361Z,0.60
2022-09-28T08:10:09.534Z,3.40
2022-09-28T08:13:06.374Z,0.73
2022-09-28T08:15:54.702Z,0.83
2022-09-28T08:18:35.357Z,0.47
2022-09-28T08:21:23.222Z,0.67
2022-09-28T08:23:50.681Z,0.80
2022-09-28T08:26:17.645Z,2.17
2022-09-28T08:28:46.976Z,1.13
2022-09-28T08:31:42.508Z,0.40
2022-09-28T08:34:44.367Z,1.43
2022-09-28T08:37:27.749Z,0.97
2022-09-28T08:40:24.623Z,0.83
2022-09-28T08:43:48.247Z,0.67
2022-09-28T08:46:48.073Z,1.23
2022-09-28T08:49:36.909Z,0.40
2022-09-28T08:52:23.659Z,5.03
2022-09-28T08:55:20.032Z,1.83
2022-09-28T08:57:54.265Z,0.83
2022-09-28T09:00:46.211Z,0.60
2022-09-28T09:03:17.488Z,0.40
2022-09-28T09:06:29.797Z,0.70
2022-09-28T09:09:27.233Z,1.13
2022-09-28T09:12:18.166Z,0.73
2022-09-28T09:14:50.931Z,0.70
2022-09-28T09:17:42.163Z,2.33
2022-09-28T09:20:35.874Z,5.37
2022-09-28T09:23:15.340Z,2.20
2022-09-28T09:25:47.018Z,0.87
2022-09-28T09:28:19.886Z,1.00
2022-09-28T09:31:06.116Z,0.30
2022-09-28T09:34:17.884Z,0.40
2022-09-28T09:37:02.273Z,1.33
2022-09-28T09:40:02.498Z,4.53
2022-09-28T09:43:05.757Z,0.57
2022-09-28T09:46:11.910Z,0.53
2022-09-28T09:49:03.923Z,0.40
2022-09-28T09:51:37.072Z,0.90
2022-09-28T09:54:13.631Z,0.20
2022-09-28T09:57:22.111Z,0.50
2022-09-28T10:00:15.811Z,0.87
2022-09-28T10:02:54.158Z,2.83
2022-09-28T10:05:36.060Z,0.70
2022-09-28T10:08:08.898Z,0.13
2022-09-28T10:10:40.712Z,0.73
2022-09-28T10:13:10.222Z,0.47
2022-09-28T10:15:39.778Z,0.30
2022-09-28T10:18:21.108Z,0.30
2022-09-28T10:21:06.401Z,2.20
2022-09-28T10:23:59.385Z,1.13
2022-09-28T10:26:35.787Z,1.30
2022-09-28T10:29:16.234Z,1.43
2022-09-28T10:31:49.526Z,1.27
2022-09-28T10:34:29.535Z,0.30
2022-09-28T10:37:04.019Z,2.63
2022-09-28T10:39:55.350Z,0.53
2022-09-28T10:42:27.634Z,0.90
2022-09-28T10:44:57.406Z,0.57
2022-09-28T10:47:45.095Z,1.07
2022-09-28T10:50:26.690Z,0.93
2022-09-28T10:53:22.241Z,2.53
2022-09-28T10:56:28.945Z,1.17
2022-09-28T10:59:24.255Z,1.37
2022-09-28T11:01:57.576Z,1.07
2022-09-28T11:04:27.802Z,2.53
2022-09-28T11:09:30.872Z,0.47
2022-09-28T11:12:05.940Z,0.50
2022-09-28T11:14:42.195Z,0.73
2022-09-28T11:17:32.726Z,0.77
2022-09-28T11:20:27.825Z,2.00
2022-09-28T11:23:00.734Z,0.70
2022-09-28T11:25:32.777Z,0.77
2022-09-28T11:28:04.852Z,0.50
2022-09-28T11:30:34.198Z,1.70
2022-09-28T11:33:35.192Z,4.13
2022-09-28T11:36:46.210Z,0.37
2022-09-28T11:39:19.426Z,0.20
2022-09-28T11:41:54.324Z,0.23
2022-09-28T11:44:31.020Z,0.43
2022-09-28T11:47:28.594Z,0.67
2022-09-28T11:50:24.019Z,2.57
2022-09-28T11:52:54.790Z,0.10
2022-09-28T11:55:21.584Z,0.27
2022-09-28T11:58:08.658Z,0.10
2022-09-28T12:00:42.475Z,0.83
2022-09-28T12:03:25.227Z,1.10
2022-09-28T12:06:01.034Z,0.20
2022-09-28T12:08:31.952Z,0.20
2022-09-28T12:11:18.345Z,0.83
2022-09-28T12:14:28.730Z,0.63
2022-09-28T12:17:07.881Z,0.10
2022-09-28T12:19:48.730Z,0.20
2022-09-28T12:22:22.245Z,0.40
2022-09-28T12:24:56.644Z,0.33
2022-09-28T12:27:44.610Z,0.73
2022-09-28T12:30:22.307Z,0.10
2022-09-28T12:33:12.342Z,0.37
2022-09-28T12:35:57.702Z,1.00
2022-09-28T12:38:43.326Z,1.58
2022-09-28T12:41:32.444Z,1.77
2022-09-28T12:44:17.620Z,0.40
2022-09-28T12:47:25.913Z,0.70
2022-09-28T12:53:30.689Z,0.47
2022-09-28T12:56:11.795Z,2.67
2022-09-28T12:59:01.155Z,0.80
2022-09-28T13:02:09.786Z,0.17
2022-09-28T13:05:02.124Z,0.22
2022-09-28T13:07:58.057Z,0.20
2022-09-28T13:10:36.337Z,0.43
2022-09-28T13:13:12.232Z,2.77
2022-09-28T13:15:45.202Z,2.00
2022-09-28T13:18:11.896Z,1.38
2022-09-28T13:20:47.831Z,0.43
2022-09-28T13:23:33.376Z,0.73
2022-09-28T13:26:14.021Z,0.30
2022-09-28T13:28:43.391Z,0.53
2022-09-28T13:31:11.484Z,0.87
2022-09-28T13:33:45.111Z,1.30
2022-09-28T13:36:33.057Z,1.40
2022-09-28T13:39:01.106Z,2.20
2022-09-28T13:41:47.431Z,1.40
2022-09-28T13:44:16.509Z,1.50
2022-09-28T13:47:01.532Z,3.57
2022-09-28T13:49:45.517Z,4.40
2022-09-28T13:52:31.544Z,2.00
2022-09-28T13:55:19.531Z,2.23
2022-09-28T13:57:56.765Z,2.13
2022-09-28T14:00:45.609Z,3.13
2022-09-28T14:03:15.162Z,2.20
2022-09-28T14:06:00.743Z,4.07
2022-09-28T14:08:34.866Z,1.00
2022-09-28T14:11:34.421Z,0.90
2022-09-28T14:14:08.718Z,0.77
2022-09-28T14:16:36.968Z,0.90
2022-09-28T14:19:16.403Z,2.07
2022-09-28T14:21:55.193Z,0.80
2022-09-28T14:25:14.262Z,1.43
2022-09-28T14:27:53.197Z,1.60
2022-09-28T14:30:23.861Z,3.83
2022-09-28T14:32:56.921Z,3.50
2022-09-28T14:35:46.351Z,1.60
2022-09-28T14:38:36.145Z,1.23
2022-09-28T14:41:10.543Z,3.87
2022-09-28T14:43:57.619Z,1.27
2022-09-28T14:46:31.999Z,1.57
2022-09-28T14:49:04.139Z,2.83
2022-09-28T14:51:31.071Z,6.03
2022-09-28T14:54:12.889Z,1.90
2022-09-28T14:56:44.289Z,1.30
2022-09-28T14:59:36.084Z,2.17
2022-09-28T15:02:12.480Z,1.43
2022-09-28T15:05:08.788Z,2.13
2022-09-28T15:07:51.025Z,1.70
2022-09-28T15:10:28.335Z,1.83
2022-09-28T15:12:56.884Z,2.13
2022-09-28T15:15:40.223Z,2.50
2022-09-28T15:18:20.045Z,5.20
2022-09-28T15:20:49.104Z,3.43
2022-09-28T15:23:39.214Z,4.50
2022-09-28T15:26:18.473Z,2.67
2022-09-28T15:28:45.244Z,3.10
2022-09-28T15:31:19.605Z,3.20
2022-09-28T15:34:06.248Z,2.30
2022-09-28T15:36:46.642Z,4.37
2022-09-28T15:39:19.195Z,4.03
2022-09-28T15:41:48.482Z,3.67
2022-09-28T15:44:33.249Z,2.87
2022-09-28T15:47:15.396Z,4.30
2022-09-28T15:49:50.903Z,3.23
2022-09-28T15:52:26.768Z,2.53
2022-09-28T15:54:54.212Z,4.30
2022-09-28T15:57:47.629Z,2.53
2022-09-28T16:00:20.778Z,2.90
2022-09-28T16:03:16.828Z,4.47
2022-09-28T16:05:46.975Z,2.00
2022-09-28T16:08:24.280Z,1.83
2022-09-28T16:11:03.037Z,2.37
2022-09-28T16:13:30.405Z,1.40
2022-09-28T16:15:59.861Z,2.57
2022-09-28T16:18:29.328Z,1.00
2022-09-28T16:21:17.438Z,4.10
2022-09-28T16:23:51.947Z,3.13
2022-09-28T16:26:31.428Z,3.17
2022-09-28T16:28:58.693Z,3.67
2022-09-28T16:31:33.818Z,5.87
2022-09-28T16:34:10.826Z,3.83
2022-09-28T16:36:47.332Z,1.53
2022-09-28T16:39:19.049Z,2.53
2022-09-28T16:41:52.067Z,2.13
2022-09-28T16:44:28.695Z,2.37
2022-09-28T16:46:58.461Z,1.97
2022-09-28T16:49:25.678Z,3.27
2022-09-28T16:51:52.881Z,2.50
2022-09-28T16:54:42.719Z,2.03
2022-09-28T16:57:12.504Z,1.27
2022-09-28T16:59:39.707Z,1.93
2022-09-28T17:02:42.118Z,3.23
2022-09-28T17:05:07.406Z,2.37
2022-09-28T17:07:34.631Z,1.80
2022-09-28T17:10:01.477Z,2.47
2022-09-28T17:12:28.946Z,1.70
2022-09-28T17:14:56.033Z,4.17
2022-09-28T17:17:22.998Z,2.83
2022-09-28T17:19:49.664Z,2.90
2022-09-28T17:22:16.883Z,6.07
2022-09-28T17:24:45.580Z,3.10
2022-09-28T17:27:18.924Z,1.70
2022-09-28T17:29:45.862Z,5.97
2022-09-28T17:32:18.113Z,5.73
2022-09-28T17:34:51.569Z,1.57
2022-09-28T17:37:22.911Z,7.50
2022-09-28T17:39:49.635Z,2.63
2022-09-28T17:42:17.287Z,3.33
2022-09-28T17:44:43.979Z,4.87
2022-09-28T17:47:11.641Z,3.97
2022-09-28T17:49:38.895Z,5.67
2022-09-28T17:52:05.832Z,1.73
2022-09-28T17:54:33.966Z,4.10
2022-09-28T17:57:00.896Z,3.77
2022-09-28T17:59:28.719Z,3.07
2022-09-28T18:01:58.322Z,2.50
2022-09-28T18:04:50.911Z,1.93
2022-09-28T18:07:13.830Z,2.03
2022-09-28T18:09:40.534Z,3.53
2022-09-28T18:12:07.848Z,3.30
2022-09-28T18:14:36.059Z,3.87
2022-09-28T18:17:03.131Z,2.43
2022-09-28T18:19:32.131Z,2.40
2022-09-28T18:21:59.297Z,2.20
2022-09-28T18:24:26.383Z,1.83
2022-09-28T18:26:53.453Z,3.13
2022-09-28T18:29:20.184Z,3.30
2022-09-28T18:31:48.794Z,3.43
2022-09-28T18:34:15.629Z,2.03
2022-09-28T18:36:42.346Z,4.00
2022-09-28T18:39:09.207Z,1.83
2022-09-28T18:41:36.092Z,3.13
2022-09-28T18:44:02.927Z,2.83
2022-09-28T18:46:34.687Z,2.90
2022-09-28T18:49:01.959Z,2.90
2022-09-28T18:51:28.770Z,2.83
2022-09-28T18:53:55.965Z,4.27
2022-09-28T18:56:22.741Z,3.50
2022-09-28T18:58:52.802Z,4.03
2022-09-28T19:01:36.512Z,4.80
2022-09-28T19:04:05.877Z,1.97
2022-09-28T19:06:34.440Z,4.30
2022-09-28T19:09:01.479Z,3.97
2022-09-28T19:11:28.892Z,4.80
2022-09-28T19:13:56.206Z,2.03
2022-09-28T19:16:28.795Z,2.40
2022-09-28T19:19:00.929Z,1.60
2022-09-28T19:21:27.840Z,3.07
2022-09-28T19:23:55.759Z,1.93
2022-09-28T19:26:27.561Z,3.67
2022-09-28T19:28:56.880Z,2.30
2022-09-28T19:31:24.427Z,2.67
2022-09-28T19:33:51.139Z,1.60
2022-09-28T19:36:21.881Z,3.10
2022-09-28T19:38:48.596Z,4.03
2022-09-28T19:41:43.792Z,2.63
2022-09-28T19:44:25.897Z,4.43
2022-09-28T19:47:08.042Z,2.63
2022-09-28T19:49:37.108Z,2.80
2022-09-28T19:52:15.855Z,3.47
2022-09-28T19:54:57.547Z,4.30
2022-09-28T19:57:35.114Z,4.27
2022-09-28T20:00:03.717Z,5.60
2022-09-28T20:02:34.694Z,2.17
2022-09-28T20:05:01.791Z,2.90
2022-09-28T20:07:32.803Z,1.97
2022-09-28T20:09:59.698Z,3.33
2022-09-28T20:12:26.499Z,5.37
2022-09-28T20:14:53.194Z,2.87
2022-09-28T20:17:21.892Z,8.23
2022-09-28T20:19:51.899Z,3.00
2022-09-28T20:22:19.980Z,1.70
2022-09-28T20:24:46.746Z,4.07
2022-09-28T20:27:13.406Z,3.00
2022-09-28T20:29:40.142Z,2.70
2022-09-28T20:32:06.905Z,2.40
2022-09-28T20:34:34.035Z,1.60
2022-09-28T20:37:00.758Z,3.90
2022-09-28T20:39:27.660Z,1.47
2022-09-28T20:41:55.066Z,0.80
2022-09-28T20:44:21.933Z,0.87
2022-09-28T20:46:52.241Z,2.03
2022-09-28T20:49:18.977Z,1.60
2022-09-28T20:51:45.735Z,3.33
2022-09-28T20:54:12.738Z,2.90
2022-09-28T20:56:39.743Z,2.83
2022-09-28T20:59:12.569Z,1.20
2022-09-28T21:01:40.518Z,3.57
2022-09-28T21:04:08.954Z,5.30
2022-09-28T21:06:38.007Z,6.10
2022-09-28T21:09:06.835Z,5.40
2022-09-28T21:11:35.690Z,3.30
2022-09-28T21:14:04.624Z,2.83
2022-09-28T21:16:33.058Z,1.53
2022-09-28T21:19:00.091Z,1.87
2022-09-28T21:21:27.565Z,1.73
2022-09-28T21:23:55.608Z,1.40
2022-09-28T21:26:24.930Z,2.70
2022-09-28T21:28:59.969Z,1.63
2022-09-28T21:31:32.777Z,2.10
2022-09-28T21:33:59.704Z,1.53
2022-09-28T21:36:27.383Z,2.17
2022-09-28T21:38:55.574Z,2.60
2022-09-28T21:41:25.521Z,0.70
2022-09-28T21:43:52.426Z,4.43
2022-09-28T21:46:19.343Z,1.53
2022-09-28T21:48:46.286Z,4.30
2022-09-28T21:51:14.789Z,1.63
2022-09-28T21:53:42.872Z,3.70
2022-09-28T21:56:12.820Z,1.30
2022-09-28T21:58:40.188Z,2.80
2022-09-28T22:01:13.137Z,3.20
2022-09-28T22:03:41.109Z,7.00
2022-09-28T22:06:08.691Z,2.70
2022-09-28T22:08:36.666Z,4.10
2022-09-28T22:11:05.753Z,4.47
2022-09-28T22:13:39.886Z,4.70
2022-09-28T22:16:07.614Z,1.50
2022-09-28T22:18:34.653Z,2.20
2022-09-28T22:21:09.121Z,3.17
2022-09-28T22:23:37.073Z,2.63
2022-09-28T22:26:03.764Z,4.93
2022-09-28T22:28:30.877Z,3.00
2022-09-28T22:30:58.314Z,3.17
2022-09-28T22:33:25.938Z,6.33
2022-09-28T22:35:53.382Z,3.50
2022-09-28T22:38:21.359Z,2.47
2022-09-28T22:40:54.375Z,2.80
2022-09-28T22:43:23.511Z,1.60
2022-09-28T22:45:50.690Z,1.97
2022-09-28T22:48:17.361Z,2.20
2022-09-28T22:50:50.819Z,2.00
2022-09-28T22:53:18.147Z,3.37
2022-09-28T22:55:44.869Z,1.27
2022-09-28T22:58:12.255Z,5.33
2022-09-28T23:00:39.580Z,3.53
2022-09-28T23:03:06.464Z,3.13
2022-09-28T23:05:33.433Z,9.43
2022-09-28T23:08:00.305Z,3.63
2022-09-28T23:10:27.391Z,17.00
2022-09-28T23:12:54.899Z,14.77
2022-09-28T23:15:22.937Z,4.63
2022-09-28T23:17:53.477Z,2.77
2022-09-28T23:20:24.125Z,7.20
2022-09-28T23:22:51.133Z,2.80
2022-09-28T23:25:19.650Z,4.40
2022-09-28T23:27:47.763Z,3.37
2022-09-28T23:30:16.153Z,10.50
2022-09-28T23:32:43.221Z,2.27
2022-09-28T23:35:10.834Z,4.03
2022-09-28T23:37:38.004Z,8.40
2022-09-28T23:40:06.163Z,8.37
2022-09-28T23:42:35.500Z,4.00
2022-09-28T23:45:02.288Z,1.53
2022-09-28T23:47:28.986Z,1.23
2022-09-28T23:49:55.816Z,2.40
2022-09-28T23:52:22.734Z,1.57
2022-09-28T23:54:49.462Z,1.27
2022-09-28T23:57:16.153Z,5.33
2022-09-28T23:59:42.829Z,19.03
